Bayberry, New York
Current Conditions -  °F | °C
As of 7:54 AM on Friday 31 Oct 2014 (Local Time) from KSYR Reporting Station
Broken Clouds Broken Clouds  
Wind Chill: 36°   Ceiling: 20000
Heat Index: 36°   Visibility: 10mi
Dew Point: 34°   Wind: 3mph
Humidity: 93%   Direction: 90°E
Pressure: 30.01"   Gusts: NA
Location:  43.1489°N, 76.2142°W
Report Text: KSYR 311154Z 09003KT 10SM FEW015 SCT050 SCT150 BKN200 02/01 A3001 RMK AO2 SLP162 60000 70007 T00220011 10050 20022 50001
Loading
Personal Weather Stations






























Interactive Weather Map
Tropical Storm Tracking
New forecast layout! Learn more

10-Day Weather Forecast

Advertisements
Track Severe Weather on mobile